createdAt,value
2023-04-07T00:02:13.547Z,7.28
2023-04-07T00:04:40.442Z,7.30
2023-04-07T00:07:07.806Z,7.23
2023-04-07T00:09:35.905Z,7.18
2023-04-07T00:12:03.114Z,7.17
2023-04-07T00:14:30.150Z,7.17
2023-04-07T00:16:57.100Z,7.10
2023-04-07T00:19:30.131Z,7.16
2023-04-07T00:21:56.921Z,7.13
2023-04-07T00:24:33.293Z,7.07
2023-04-07T00:27:01.558Z,7.06
2023-04-07T00:29:28.314Z,6.97
2023-04-07T00:31:55.082Z,6.85
2023-04-07T00:34:22.156Z,6.86
2023-04-07T00:39:21.294Z,6.66
2023-04-07T00:41:48.764Z,6.62
2023-04-07T00:44:15.688Z,6.59
2023-04-07T00:46:42.775Z,6.63
2023-04-07T00:49:11.503Z,6.69
2023-04-07T00:51:41.716Z,6.64
2023-04-07T00:54:09.582Z,6.54
2023-04-07T00:56:36.720Z,6.45
2023-04-07T00:59:05.884Z,6.45
2023-04-07T01:01:52.655Z,6.35
2023-04-07T01:04:35.955Z,6.45
2023-04-07T01:07:22.142Z,6.37
2023-04-07T01:09:52.507Z,6.41
2023-04-07T01:12:44.610Z,6.36
2023-04-07T01:15:13.708Z,6.34
2023-04-07T01:17:46.001Z,6.29
2023-04-07T01:20:16.766Z,6.32
2023-04-07T01:22:48.126Z,6.29
2023-04-07T01:25:40.232Z,6.34
2023-04-07T01:28:35.079Z,6.19
2023-04-07T01:31:05.079Z,6.35
2023-04-07T01:33:34.201Z,6.20
2023-04-07T01:36:07.253Z,6.14
2023-04-07T01:38:35.309Z,6.25
2023-04-07T01:41:03.347Z,6.24
2023-04-07T01:43:31.385Z,6.19
2023-04-07T01:45:59.198Z,6.15
2023-04-07T01:48:26.977Z,6.16
2023-04-07T01:50:56.082Z,6.15
2023-04-07T01:53:23.815Z,6.12
2023-04-07T01:55:52.449Z,6.03
2023-04-07T01:58:19.596Z,5.93
2023-04-07T02:00:47.729Z,5.90
2023-04-07T02:03:23.591Z,5.99
2023-04-07T02:05:52.546Z,5.98
2023-04-07T02:08:39.117Z,5.94
2023-04-07T02:11:08.485Z,5.83
2023-04-07T02:13:38.208Z,5.91
2023-04-07T02:16:07.758Z,5.83
2023-04-07T02:18:35.814Z,5.71
2023-04-07T02:21:04.662Z,5.79
2023-04-07T02:23:31.931Z,5.73
2023-04-07T02:25:58.854Z,5.74
2023-04-07T02:28:25.695Z,5.74
2023-04-07T02:30:55.678Z,5.69
2023-04-07T02:33:22.900Z,5.65
2023-04-07T02:35:49.876Z,5.70
2023-04-07T02:38:18.945Z,5.68
2023-04-07T02:40:49.107Z,5.68
2023-04-07T02:43:17.881Z,5.72
2023-04-07T02:45:44.809Z,5.63
2023-04-07T02:48:11.630Z,5.51
2023-04-07T02:50:38.485Z,5.57
2023-04-07T02:53:08.453Z,5.70
2023-04-07T02:55:35.377Z,5.74
2023-04-07T02:58:02.276Z,5.71
2023-04-07T03:00:30.024Z,5.61
2023-04-07T03:02:59.673Z,5.64
2023-04-07T03:05:26.846Z,5.61
2023-04-07T03:07:56.093Z,5.60
2023-04-07T03:10:23.856Z,5.59
2023-04-07T03:12:52.429Z,5.72
2023-04-07T03:15:21.685Z,5.57
2023-04-07T03:17:48.597Z,5.77
2023-04-07T03:20:15.494Z,5.66
2023-04-07T03:22:45.959Z,5.64
2023-04-07T03:25:16.003Z,5.63
2023-04-07T03:27:42.948Z,5.64
2023-04-07T03:30:13.295Z,5.61
2023-04-07T03:32:40.842Z,5.63
2023-04-07T03:35:12.103Z,5.65
2023-04-07T03:37:39.083Z,5.68
2023-04-07T03:40:09.171Z,5.74
2023-04-07T03:42:47.156Z,5.61
2023-04-07T03:45:14.069Z,5.61
2023-04-07T03:47:41.562Z,5.60
2023-04-07T03:50:08.909Z,5.61
2023-04-07T03:52:38.879Z,5.68
2023-04-07T03:55:08.978Z,5.70
2023-04-07T03:57:43.309Z,5.60
2023-04-07T04:00:11.379Z,5.63
2023-04-07T04:02:38.539Z,5.67
2023-04-07T04:05:05.875Z,5.68
2023-04-07T04:07:36.331Z,5.54
2023-04-07T04:10:04.082Z,5.57
2023-04-07T04:12:31.348Z,5.45
2023-04-07T04:14:58.219Z,5.46
2023-04-07T04:17:25.857Z,5.53
2023-04-07T04:19:52.896Z,5.67
2023-04-07T04:22:19.672Z,5.46
2023-04-07T04:24:46.445Z,5.53
2023-04-07T04:27:16.229Z,5.59
2023-04-07T04:29:42.992Z,5.50
2023-04-07T04:32:10.960Z,5.46
2023-04-07T04:34:37.835Z,5.50
2023-04-07T04:37:04.606Z,5.52
2023-04-07T04:39:31.702Z,5.48
2023-04-07T04:41:58.507Z,5.47
2023-04-07T04:44:25.301Z,5.46
2023-04-07T04:46:52.621Z,5.55
2023-04-07T04:49:20.504Z,5.49
2023-04-07T04:51:47.270Z,5.53
2023-04-07T04:54:17.603Z,5.51
2023-04-07T04:56:44.384Z,5.43
2023-04-07T04:59:11.344Z,5.56
2023-04-07T05:01:43.970Z,5.52
2023-04-07T05:04:17.376Z,5.50
2023-04-07T05:06:47.406Z,5.50
2023-04-07T05:09:14.207Z,5.53
2023-04-07T05:11:45.074Z,5.57
2023-04-07T05:14:12.228Z,5.57
2023-04-07T05:16:39.103Z,5.63
2023-04-07T05:19:06.801Z,5.56
2023-04-07T05:21:33.731Z,5.65
2023-04-07T05:24:00.554Z,5.55
2023-04-07T05:26:27.443Z,5.52
2023-04-07T05:28:54.292Z,5.67
2023-04-07T05:31:21.276Z,5.68
2023-04-07T05:33:48.305Z,5.67
2023-04-07T05:36:20.081Z,5.74
2023-04-07T05:38:47.600Z,5.74
2023-04-07T05:41:17.262Z,5.62
2023-04-07T05:43:44.130Z,5.66
2023-04-07T05:46:12.215Z,5.65
2023-04-07T05:48:42.031Z,5.70
2023-04-07T05:51:09.342Z,5.71
2023-04-07T05:53:36.662Z,5.68
2023-04-07T05:56:03.463Z,5.73
2023-04-07T05:58:30.267Z,5.79
2023-04-07T06:00:58.604Z,5.86
2023-04-07T06:03:26.177Z,5.77
2023-04-07T06:05:53.102Z,5.82
2023-04-07T06:08:20.509Z,5.82
2023-04-07T06:10:47.578Z,5.85
2023-04-07T06:13:14.583Z,5.86
2023-04-07T06:15:41.813Z,5.86
2023-04-07T06:18:08.775Z,5.83
2023-04-07T06:20:42.150Z,5.87
2023-04-07T06:23:09.035Z,5.91
2023-04-07T06:25:36.177Z,5.92
2023-04-07T06:28:03.227Z,6.10
2023-04-07T06:30:30.095Z,5.89
2023-04-07T06:32:56.934Z,6.12
2023-04-07T06:35:26.983Z,6.15
2023-04-07T06:37:54.209Z,6.26
2023-04-07T06:40:21.042Z,6.26
2023-04-07T06:42:47.909Z,6.12
2023-04-07T06:45:14.679Z,6.23
2023-04-07T06:47:41.625Z,6.26
2023-04-07T06:50:08.804Z,6.29
2023-04-07T06:52:35.568Z,6.40
2023-04-07T06:55:02.479Z,6.45
2023-04-07T06:57:29.247Z,6.26
2023-04-07T06:59:55.984Z,6.37
2023-04-07T07:02:23.163Z,6.45
2023-04-07T07:04:53.732Z,6.43
2023-04-07T07:07:21.036Z,6.55
2023-04-07T07:09:47.795Z,6.61
2023-04-07T07:12:15.806Z,6.48
2023-04-07T07:14:43.054Z,6.62
2023-04-07T07:17:10.048Z,6.56
2023-04-07T07:19:37.647Z,6.58
2023-04-07T07:22:04.491Z,6.57
2023-04-07T07:24:34.574Z,6.77
2023-04-07T07:27:02.712Z,6.72
2023-04-07T07:29:29.852Z,6.91
2023-04-07T07:31:56.734Z,6.87
2023-04-07T07:34:23.650Z,6.95
2023-04-07T07:36:51.329Z,7.01
2023-04-07T07:39:18.292Z,6.69
2023-04-07T07:41:45.555Z,7.08
2023-04-07T07:44:12.428Z,7.08
2023-04-07T07:46:39.282Z,7.15
2023-04-07T07:49:06.378Z,7.21
2023-04-07T07:51:33.749Z,7.33
2023-04-07T07:54:00.540Z,7.35
2023-04-07T07:56:27.841Z,7.37
2023-04-07T07:58:54.661Z,7.31
2023-04-07T08:01:22.134Z,7.52
2023-04-07T08:03:49.369Z,7.46
2023-04-07T08:06:16.943Z,7.55
2023-04-07T08:08:45.881Z,7.55
2023-04-07T08:11:12.917Z,7.40
2023-04-07T08:13:40.247Z,7.45
2023-04-07T08:16:07.437Z,7.71
2023-04-07T08:18:34.205Z,7.46
2023-04-07T08:21:02.135Z,7.43
2023-04-07T08:23:30.557Z,7.58
2023-04-07T08:25:57.492Z,7.67
2023-04-07T08:28:26.074Z,7.80
2023-04-07T08:30:52.918Z,7.93
2023-04-07T08:33:19.729Z,8.14
2023-04-07T08:35:46.713Z,8.24
2023-04-07T08:38:13.523Z,8.53
2023-04-07T08:40:41.013Z,8.51
2023-04-07T08:43:09.943Z,7.95
2023-04-07T08:45:42.423Z,8.35
2023-04-07T08:48:17.900Z,8.27
2023-04-07T08:50:46.513Z,8.33
2023-04-07T08:53:18.763Z,8.48
2023-04-07T08:55:45.788Z,8.38
2023-04-07T08:58:14.709Z,8.83
2023-04-07T09:00:46.011Z,8.57
2023-04-07T09:03:13.566Z,9.17
2023-04-07T09:05:40.693Z,9.09
2023-04-07T09:08:17.266Z,9.30
2023-04-07T09:10:44.106Z,8.99
2023-04-07T09:13:14.615Z,9.28
2023-04-07T09:15:41.788Z,9.24
2023-04-07T09:18:08.659Z,9.28
2023-04-07T09:20:58.174Z,9.51
2023-04-07T09:23:32.909Z,9.33
2023-04-07T09:26:01.769Z,9.33
2023-04-07T09:28:45.883Z,9.48
2023-04-07T09:31:12.875Z,9.73
2023-04-07T09:33:39.742Z,9.45
2023-04-07T09:36:07.728Z,9.71
2023-04-07T09:38:39.575Z,10.31
2023-04-07T09:41:12.113Z,9.81
2023-04-07T09:43:45.289Z,10.01
2023-04-07T09:46:17.357Z,9.81
2023-04-07T09:48:46.600Z,9.41
2023-04-07T09:51:16.157Z,9.47
2023-04-07T09:53:51.907Z,10.35
2023-04-07T09:56:24.914Z,9.68
2023-04-07T09:58:52.187Z,10.25
2023-04-07T10:01:22.162Z,10.38
2023-04-07T10:03:51.306Z,9.91
2023-04-07T10:06:19.895Z,9.87
2023-04-07T10:08:47.013Z,9.97
2023-04-07T10:11:16.208Z,10.08
2023-04-07T10:13:43.245Z,10.66
2023-04-07T10:16:10.044Z,10.36
2023-04-07T10:18:38.724Z,10.67
2023-04-07T10:21:08.280Z,10.23
2023-04-07T10:23:49.702Z,10.27
2023-04-07T10:26:20.318Z,9.74
2023-04-07T10:28:51.151Z,9.68
2023-04-07T10:31:18.828Z,9.96
2023-04-07T10:33:52.977Z,10.01
2023-04-07T10:36:21.450Z,9.75
2023-04-07T10:39:06.858Z,10.50
2023-04-07T10:41:37.749Z,10.86
2023-04-07T10:44:06.988Z,10.49
2023-04-07T10:46:45.772Z,10.57
2023-04-07T10:49:14.429Z,10.92
2023-04-07T10:51:43.241Z,11.43
2023-04-07T10:54:20.758Z,12.13
2023-04-07T10:57:15.002Z,11.15
2023-04-07T11:00:04.454Z,11.80
2023-04-07T11:02:32.993Z,10.88
2023-04-07T11:05:00.069Z,10.84
2023-04-07T11:08:07.026Z,11.25
2023-04-07T11:10:35.889Z,11.30
2023-04-07T11:13:07.940Z,11.73
2023-04-07T11:15:40.447Z,11.84
2023-04-07T11:18:17.268Z,11.50
2023-04-07T11:20:49.282Z,12.11
2023-04-07T11:23:18.487Z,11.84
2023-04-07T11:25:48.725Z,12.05
2023-04-07T11:28:22.186Z,12.14
2023-04-07T11:30:53.086Z,12.11
2023-04-07T11:33:26.003Z,12.64
2023-04-07T11:36:01.183Z,12.91
2023-04-07T11:38:31.207Z,13.56
2023-04-07T11:41:09.730Z,12.72
2023-04-07T11:43:38.220Z,12.56
2023-04-07T11:46:16.389Z,12.60
2023-04-07T11:48:44.966Z,12.79
2023-04-07T11:51:20.808Z,12.12
2023-04-07T11:53:48.339Z,12.58
2023-04-07T11:56:17.296Z,11.95
2023-04-07T11:58:52.097Z,12.40
2023-04-07T12:01:20.737Z,12.09
2023-04-07T12:04:04.653Z,12.07
2023-04-07T12:06:39.424Z,12.06
2023-04-07T12:09:06.604Z,12.39
2023-04-07T12:11:34.824Z,11.43
2023-04-07T12:14:05.308Z,12.64
2023-04-07T12:16:32.558Z,12.48
2023-04-07T12:18:59.428Z,12.06
2023-04-07T12:21:26.876Z,12.01
2023-04-07T12:23:53.692Z,12.64
2023-04-07T12:26:23.373Z,12.48
2023-04-07T12:28:50.546Z,12.46
2023-04-07T12:31:17.911Z,13.32
2023-04-07T12:33:44.667Z,14.85
2023-04-07T12:36:11.716Z,16.44
2023-04-07T12:38:38.559Z,15.16
2023-04-07T12:41:08.827Z,13.85
2023-04-07T12:43:35.959Z,13.07
2023-04-07T12:46:02.979Z,13.99
2023-04-07T12:48:29.835Z,13.94
2023-04-07T12:50:56.826Z,14.57
2023-04-07T12:53:23.684Z,14.94
2023-04-07T12:55:53.717Z,14.27
2023-04-07T12:58:21.682Z,13.88
2023-04-07T13:00:48.803Z,15.13
2023-04-07T13:03:15.869Z,14.67
2023-04-07T13:05:43.062Z,14.55
2023-04-07T13:08:10.802Z,14.05
2023-04-07T13:10:37.898Z,14.62
2023-04-07T13:13:04.655Z,14.44
2023-04-07T13:15:31.376Z,13.99
2023-04-07T13:17:58.380Z,14.56
2023-04-07T13:20:28.396Z,14.56
2023-04-07T13:23:05.944Z,13.39
2023-04-07T13:25:36.666Z,13.11
2023-04-07T13:28:03.993Z,14.55
2023-04-07T13:30:30.838Z,14.33
2023-04-07T13:32:57.847Z,14.40
2023-04-07T13:35:24.680Z,13.58
2023-04-07T13:37:51.581Z,14.72
2023-04-07T13:40:18.521Z,14.69
2023-04-07T13:42:46.300Z,14.92
2023-04-07T13:45:13.328Z,15.77
2023-04-07T13:47:40.306Z,16.04
2023-04-07T13:50:07.763Z,14.85
2023-04-07T13:52:35.733Z,15.80
2023-04-07T13:55:04.518Z,15.31
2023-04-07T13:57:31.883Z,16.28
2023-04-07T13:59:59.075Z,15.78
2023-04-07T14:02:30.434Z,16.43
2023-04-07T14:04:58.091Z,15.27
2023-04-07T14:07:24.837Z,15.89
2023-04-07T14:09:51.838Z,15.93
2023-04-07T14:12:21.559Z,16.46
2023-04-07T14:14:52.384Z,15.46
2023-04-07T14:17:19.192Z,15.32
2023-04-07T14:19:46.733Z,15.55
2023-04-07T14:22:14.811Z,15.07
2023-04-07T14:24:41.710Z,15.58
2023-04-07T14:27:08.741Z,15.62
2023-04-07T14:29:35.666Z,15.05
2023-04-07T14:32:03.352Z,14.55
2023-04-07T14:34:30.117Z,15.75
2023-04-07T14:36:59.104Z,15.50
2023-04-07T14:39:26.056Z,15.13
2023-04-07T14:41:54.427Z,16.52
2023-04-07T14:44:21.622Z,15.63
2023-04-07T14:46:49.013Z,16.13
2023-04-07T14:49:15.957Z,15.29
2023-04-07T14:51:43.016Z,15.13
2023-04-07T14:54:09.902Z,14.70
2023-04-07T14:56:37.412Z,15.59
2023-04-07T14:59:04.537Z,15.28
2023-04-07T15:01:31.659Z,14.98
2023-04-07T15:04:01.099Z,14.31
2023-04-07T15:06:28.037Z,14.81
2023-04-07T15:08:54.949Z,15.46
2023-04-07T15:11:22.067Z,14.50
2023-04-07T15:13:49.115Z,15.08
2023-04-07T15:16:16.679Z,14.36
2023-04-07T15:18:45.647Z,14.65
2023-04-07T15:21:13.846Z,14.27
2023-04-07T15:23:42.143Z,14.15
2023-04-07T15:26:10.558Z,13.97
2023-04-07T15:28:37.784Z,13.61
2023-04-07T15:31:09.158Z,15.07
2023-04-07T15:33:39.974Z,16.60
2023-04-07T15:36:10.017Z,15.06
2023-04-07T15:38:39.293Z,15.35
2023-04-07T15:41:06.710Z,16.10
2023-04-07T15:43:34.729Z,16.30
2023-04-07T15:46:02.415Z,15.62
2023-04-07T15:48:29.253Z,14.95
2023-04-07T15:50:56.422Z,14.45
2023-04-07T15:53:23.583Z,14.20
2023-04-07T15:55:50.748Z,13.37
2023-04-07T15:58:17.625Z,13.74
2023-04-07T16:00:44.631Z,14.14
2023-04-07T16:03:12.163Z,13.50
2023-04-07T16:05:39.384Z,13.38
2023-04-07T16:08:06.329Z,13.38
2023-04-07T16:10:33.222Z,13.11
2023-04-07T16:13:00.118Z,12.69
2023-04-07T16:15:39.471Z,12.41
2023-04-07T16:18:13.315Z,12.40
2023-04-07T16:20:40.282Z,12.52
2023-04-07T16:23:07.027Z,12.27
2023-04-07T16:25:33.798Z,12.14
2023-04-07T16:28:00.982Z,12.14
2023-04-07T16:30:27.883Z,12.27
2023-04-07T16:32:54.712Z,12.94
2023-04-07T16:35:21.635Z,13.10
2023-04-07T16:37:50.221Z,12.72
2023-04-07T16:40:18.447Z,12.36
2023-04-07T16:42:45.216Z,12.40
2023-04-07T16:45:12.023Z,12.03
2023-04-07T16:47:39.265Z,12.24
2023-04-07T16:50:06.417Z,12.11
2023-04-07T16:52:33.493Z,12.85
2023-04-07T16:55:01.012Z,12.92
2023-04-07T16:57:27.946Z,12.67
2023-04-07T16:59:54.719Z,12.92
2023-04-07T17:02:21.788Z,13.45
2023-04-07T17:04:48.858Z,12.30
2023-04-07T17:07:16.673Z,11.74
2023-04-07T17:09:44.982Z,11.44
2023-04-07T17:12:12.100Z,11.59
2023-04-07T17:14:38.944Z,11.34
2023-04-07T17:17:05.713Z,11.19
2023-04-07T17:19:32.494Z,11.18
2023-04-07T17:21:59.601Z,11.03
2023-04-07T17:24:27.662Z,10.86
2023-04-07T17:26:54.451Z,10.80
2023-04-07T17:29:22.778Z,10.74
2023-04-07T17:31:50.154Z,10.70
2023-04-07T17:34:17.801Z,10.63
2023-04-07T17:36:44.620Z,10.51
2023-04-07T17:39:11.641Z,10.48
2023-04-07T17:41:38.768Z,10.45
2023-04-07T17:44:09.533Z,10.35
2023-04-07T17:46:36.396Z,10.31
2023-04-07T17:49:03.795Z,10.26
2023-04-07T17:51:30.541Z,10.20
2023-04-07T17:54:01.456Z,10.09
2023-04-07T17:56:29.047Z,9.98
2023-04-07T17:58:56.000Z,9.99
2023-04-07T18:01:22.892Z,9.97
2023-04-07T18:03:52.974Z,9.91
2023-04-07T18:06:23.903Z,9.78
2023-04-07T18:08:50.696Z,9.75
2023-04-07T18:11:18.919Z,9.70
2023-04-07T18:13:45.753Z,9.65
2023-04-07T18:16:19.938Z,9.59
2023-04-07T18:18:49.090Z,9.50
2023-04-07T18:21:15.952Z,9.44
2023-04-07T18:23:42.705Z,9.50
2023-04-07T18:26:09.618Z,9.42
2023-04-07T18:28:39.695Z,9.36
2023-04-07T18:31:08.336Z,9.34
2023-04-07T18:33:35.973Z,9.36
2023-04-07T18:36:08.185Z,9.24
2023-04-07T18:38:40.985Z,9.17
2023-04-07T18:41:07.980Z,9.13
2023-04-07T18:43:35.110Z,9.00
2023-04-07T18:46:01.929Z,9.04
2023-04-07T18:48:28.808Z,9.05
2023-04-07T18:50:56.846Z,8.94
2023-04-07T18:53:24.574Z,9.01
2023-04-07T18:55:51.880Z,8.90
2023-04-07T18:58:19.546Z,8.81
2023-04-07T19:00:49.835Z,8.73
2023-04-07T19:03:20.080Z,8.74
2023-04-07T19:05:47.898Z,8.79
2023-04-07T19:08:16.175Z,8.74
2023-04-07T19:10:43.802Z,8.61
2023-04-07T19:13:10.701Z,8.59
2023-04-07T19:15:40.062Z,8.53
2023-04-07T19:18:08.458Z,8.45
2023-04-07T19:20:35.998Z,8.31
2023-04-07T19:23:03.037Z,8.38
2023-04-07T19:25:31.379Z,8.41
2023-04-07T19:27:58.848Z,8.41
2023-04-07T19:30:25.833Z,8.41
2023-04-07T19:32:52.862Z,8.30
2023-04-07T19:35:20.148Z,8.27
2023-04-07T19:37:48.320Z,8.21
2023-04-07T19:40:17.737Z,8.22
2023-04-07T19:42:44.624Z,8.20
2023-04-07T19:45:12.426Z,8.20
2023-04-07T19:47:39.654Z,8.15
2023-04-07T19:50:07.804Z,8.16
2023-04-07T19:52:34.812Z,8.15
2023-04-07T19:55:04.435Z,8.13
2023-04-07T19:57:31.939Z,8.11
2023-04-07T19:59:58.844Z,8.06
2023-04-07T20:02:26.137Z,8.04
2023-04-07T20:04:54.370Z,7.95
2023-04-07T20:07:22.613Z,7.86
2023-04-07T20:09:51.693Z,7.75
2023-04-07T20:12:18.458Z,7.76
2023-04-07T20:17:17.520Z,7.60
2023-04-07T20:19:44.427Z,7.59
2023-04-07T20:22:11.785Z,7.47
2023-04-07T20:24:39.943Z,7.35
2023-04-07T20:27:06.736Z,7.37
2023-04-07T20:29:33.584Z,7.39
2023-04-07T20:32:00.527Z,7.26
2023-04-07T20:34:27.262Z,7.36
2023-04-07T20:36:54.176Z,7.35
2023-04-07T20:39:20.950Z,7.23
2023-04-07T20:41:47.991Z,7.13
2023-04-07T20:44:15.235Z,7.12
2023-04-07T20:46:42.436Z,7.14
2023-04-07T20:49:09.552Z,7.18
2023-04-07T20:51:37.170Z,7.18
2023-04-07T20:54:05.076Z,7.02
2023-04-07T20:56:32.165Z,7.02
2023-04-07T20:58:59.119Z,6.93
2023-04-07T21:01:26.254Z,6.85
2023-04-07T21:03:54.270Z,6.80
2023-04-07T21:06:21.601Z,6.79
2023-04-07T21:08:48.461Z,6.73
2023-04-07T21:11:15.687Z,6.82
2023-04-07T21:13:42.630Z,6.98
2023-04-07T21:16:09.802Z,6.92
2023-04-07T21:18:36.696Z,6.99
2023-04-07T21:21:04.503Z,6.98
2023-04-07T21:23:32.135Z,7.05
2023-04-07T21:26:03.272Z,6.93
2023-04-07T21:28:30.121Z,6.90
2023-04-07T21:30:57.307Z,6.92
2023-04-07T21:33:24.254Z,6.85
2023-04-07T21:35:51.996Z,6.74
2023-04-07T21:38:18.867Z,6.61
2023-04-07T21:40:45.642Z,6.54
2023-04-07T21:43:12.745Z,6.39
2023-04-07T21:45:39.809Z,6.31
2023-04-07T21:48:07.249Z,6.28
2023-04-07T21:50:34.406Z,6.17
2023-04-07T21:53:01.244Z,6.11
2023-04-07T21:55:31.165Z,6.09
2023-04-07T21:57:58.449Z,6.02
2023-04-07T22:00:25.445Z,5.88
2023-04-07T22:03:09.328Z,5.89
2023-04-07T22:05:36.423Z,5.89
2023-04-07T22:08:03.503Z,5.88
2023-04-07T22:10:30.652Z,5.81
2023-04-07T22:12:57.441Z,5.72
2023-04-07T22:15:24.173Z,5.76
2023-04-07T22:17:51.081Z,5.81
2023-04-07T22:20:18.216Z,5.77
2023-04-07T22:22:45.086Z,5.72
2023-04-07T22:25:11.872Z,5.73
2023-04-07T22:27:38.833Z,5.62
2023-04-07T22:30:10.242Z,5.60
2023-04-07T22:32:39.978Z,5.57
2023-04-07T22:35:07.006Z,5.53
2023-04-07T22:37:33.759Z,5.66
2023-04-07T22:40:00.666Z,5.52
2023-04-07T22:42:27.490Z,5.53
2023-04-07T22:44:54.279Z,5.43
2023-04-07T22:47:22.619Z,5.48
2023-04-07T22:49:49.492Z,5.38
2023-04-07T22:52:16.359Z,5.38
2023-04-07T22:54:43.090Z,5.38
2023-04-07T22:57:09.848Z,5.35
2023-04-07T22:59:38.255Z,5.25
2023-04-07T23:02:05.147Z,5.27
2023-04-07T23:04:32.041Z,5.26
2023-04-07T23:06:58.841Z,5.21
2023-04-07T23:09:25.931Z,5.19
2023-04-07T23:11:52.708Z,5.33
2023-04-07T23:14:19.624Z,5.27
2023-04-07T23:16:46.582Z,5.26
2023-04-07T23:19:15.924Z,5.25
2023-04-07T23:21:43.394Z,5.18
2023-04-07T23:24:10.676Z,5.17
2023-04-07T23:26:37.527Z,5.02
2023-04-07T23:29:04.311Z,5.05
2023-04-07T23:31:31.490Z,5.09
2023-04-07T23:33:59.970Z,4.99
2023-04-07T23:36:27.418Z,5.02
2023-04-07T23:38:57.265Z,4.98
2023-04-07T23:41:24.246Z,4.89
2023-04-07T23:43:51.286Z,4.90
2023-04-07T23:46:18.085Z,4.85
2023-04-07T23:48:44.900Z,4.79
2023-04-07T23:51:13.008Z,4.80
2023-04-07T23:53:39.773Z,4.75
2023-04-07T23:56:06.815Z,4.70
2023-04-07T23:58:33.634Z,4.57
